Alexander, Iowa
Current Conditions -  °F | °C
As of 3:55 PM on Saturday 25 Oct 2014 (Local Time) from KCAV Reporting Station
Clear Clear  
Wind Chill: 66°   Ceiling: Unl
Heat Index: 66°   Visibility: 10mi
Dew Point: 34°   Wind: 10mph
Humidity: 30%   Direction: 330°NNW
Pressure: 30.08"   Gusts: 17mph
Location:  42.81°N, 93.48°W
Report Text: KCAV 252055Z AUTO 33009G15KT 10SM CLR 19/01 A3008 RMK AO2
Loading
Personal Weather Stations






























Interactive Weather Map
Tropical Storm Tracking
New forecast layout! Learn more

10-Day Weather Forecast

Advertisements
Track Severe Weather on mobile